sensor_id;sensor_type;location;lat;lon;timestamp;temperature;humidity
24800;DHT22;12897;50.812;4.430;2023-04-03T00:01:30;3.50;99.90
24800;DHT22;12897;50.812;4.430;2023-04-03T00:03:58;3.50;99.90
24800;DHT22;12897;50.812;4.430;2023-04-03T00:06:26;3.40;99.90
24800;DHT22;12897;50.812;4.430;2023-04-03T00:08:54;3.30;99.90
24800;DHT22;12897;50.812;4.430;2023-04-03T00:11:21;3.30;99.90
24800;DHT22;12897;50.812;4.430;2023-04-03T00:13:49;3.30;99.90
24800;DHT22;12897;50.812;4.430;2023-04-03T00:16:17;3.20;99.90
24800;DHT22;12897;50.812;4.430;2023-04-03T00:18:44;3.20;99.90
24800;DHT22;12897;50.812;4.430;2023-04-03T00:21:13;3.20;99.90
24800;DHT22;12897;50.812;4.430;2023-04-03T00:23:42;3.10;99.90
24800;DHT22;12897;50.812;4.430;2023-04-03T00:26:09;3.20;99.90
24800;DHT22;12897;50.812;4.430;2023-04-03T00:28:38;3.10;99.90
24800;DHT22;12897;50.812;4.430;2023-04-03T00:31:06;3.00;99.90
24800;DHT22;12897;50.812;4.430;2023-04-03T00:33:52;2.90;99.90
24800;DHT22;12897;50.812;4.430;2023-04-03T00:36:20;2.90;99.90
24800;DHT22;12897;50.812;4.430;2023-04-03T00:38:47;2.90;99.90
24800;DHT22;12897;50.812;4.430;2023-04-03T00:41:15;3.00;99.90
24800;DHT22;12897;50.812;4.430;2023-04-03T00:43:42;3.10;99.90
24800;DHT22;12897;50.812;4.430;2023-04-03T00:46:11;3.10;99.90
24800;DHT22;12897;50.812;4.430;2023-04-03T00:48:46;3.10;99.90
24800;DHT22;12897;50.812;4.430;2023-04-03T00:51:25;3.20;99.90
24800;DHT22;12897;50.812;4.430;2023-04-03T00:53:56;3.30;99.90
24800;DHT22;12897;50.812;4.430;2023-04-03T00:56:26;3.40;99.90
24800;DHT22;12897;50.812;4.430;2023-04-03T00:59:10;3.40;99.90
24800;DHT22;12897;50.812;4.430;2023-04-03T01:01:38;3.30;99.90
24800;DHT22;12897;50.812;4.430;2023-04-03T01:04:24;3.30;99.90
24800;DHT22;12897;50.812;4.430;2023-04-03T01:06:37;3.20;99.90
24800;DHT22;12897;50.812;4.430;2023-04-03T01:09:05;3.10;99.90
24800;DHT22;12897;50.812;4.430;2023-04-03T01:11:33;2.90;99.90
24800;DHT22;12897;50.812;4.430;2023-04-03T01:14:00;3.00;99.90
24800;DHT22;12897;50.812;4.430;2023-04-03T01:16:28;3.00;99.90
24800;DHT22;12897;50.812;4.430;2023-04-03T01:18:59;3.10;99.90
24800;DHT22;12897;50.812;4.430;2023-04-03T01:24:34;3.10;99.90
24800;DHT22;12897;50.812;4.430;2023-04-03T01:27:04;3.10;99.90
24800;DHT22;12897;50.812;4.430;2023-04-03T01:29:32;3.10;99.90
24800;DHT22;12897;50.812;4.430;2023-04-03T01:32:01;3.20;99.90
24800;DHT22;12897;50.812;4.430;2023-04-03T01:34:30;3.10;99.90
24800;DHT22;12897;50.812;4.430;2023-04-03T01:37:17;3.10;99.90
24800;DHT22;12897;50.812;4.430;2023-04-03T01:39:44;3.00;99.90
24800;DHT22;12897;50.812;4.430;2023-04-03T01:42:12;3.00;99.90
24800;DHT22;12897;50.812;4.430;2023-04-03T01:44:39;3.00;99.90
24800;DHT22;12897;50.812;4.430;2023-04-03T01:47:07;3.00;99.90
24800;DHT22;12897;50.812;4.430;2023-04-03T01:49:34;2.90;99.90
24800;DHT22;12897;50.812;4.430;2023-04-03T01:52:02;2.90;99.90
24800;DHT22;12897;50.812;4.430;2023-04-03T01:54:30;2.90;99.90
24800;DHT22;12897;50.812;4.430;2023-04-03T01:56:57;2.80;99.90
24800;DHT22;12897;50.812;4.430;2023-04-03T01:59:25;2.80;99.90
24800;DHT22;12897;50.812;4.430;2023-04-03T02:01:52;2.70;99.90
24800;DHT22;12897;50.812;4.430;2023-04-03T02:04:20;2.80;99.90
24800;DHT22;12897;50.812;4.430;2023-04-03T02:06:48;2.90;99.90
24800;DHT22;12897;50.812;4.430;2023-04-03T02:09:15;2.90;99.90
24800;DHT22;12897;50.812;4.430;2023-04-03T02:11:43;2.90;99.90
24800;DHT22;12897;50.812;4.430;2023-04-03T02:14:10;2.90;99.90
24800;DHT22;12897;50.812;4.430;2023-04-03T02:16:38;2.90;99.90
24800;DHT22;12897;50.812;4.430;2023-04-03T02:19:05;2.80;99.90
24800;DHT22;12897;50.812;4.430;2023-04-03T02:21:33;2.90;99.90
24800;DHT22;12897;50.812;4.430;2023-04-03T02:24:00;3.00;99.90
24800;DHT22;12897;50.812;4.430;2023-04-03T02:26:28;3.00;99.90
24800;DHT22;12897;50.812;4.430;2023-04-03T02:28:56;3.00;99.90
24800;DHT22;12897;50.812;4.430;2023-04-03T02:31:23;3.00;99.90
24800;DHT22;12897;50.812;4.430;2023-04-03T02:33:51;2.90;99.90
24800;DHT22;12897;50.812;4.430;2023-04-03T02:36:18;2.90;99.90
24800;DHT22;12897;50.812;4.430;2023-04-03T02:38:46;2.90;99.90
24800;DHT22;12897;50.812;4.430;2023-04-03T02:41:14;2.80;99.90
24800;DHT22;12897;50.812;4.430;2023-04-03T02:43:42;2.70;99.90
24800;DHT22;12897;50.812;4.430;2023-04-03T02:46:10;2.80;99.90
24800;DHT22;12897;50.812;4.430;2023-04-03T02:48:40;2.60;99.90
24800;DHT22;12897;50.812;4.430;2023-04-03T02:51:07;2.50;99.90
24800;DHT22;12897;50.812;4.430;2023-04-03T02:53:35;2.60;99.90
24800;DHT22;12897;50.812;4.430;2023-04-03T02:56:02;2.60;99.90
24800;DHT22;12897;50.812;4.430;2023-04-03T02:58:30;2.50;99.90
24800;DHT22;12897;50.812;4.430;2023-04-03T03:00:57;2.50;99.90
24800;DHT22;12897;50.812;4.430;2023-04-03T03:03:25;2.60;99.90
24800;DHT22;12897;50.812;4.430;2023-04-03T03:06:13;2.60;99.90
24800;DHT22;12897;50.812;4.430;2023-04-03T03:08:26;2.60;99.90
24800;DHT22;12897;50.812;4.430;2023-04-03T03:10:54;2.60;99.90
24800;DHT22;12897;50.812;4.430;2023-04-03T03:13:21;2.50;99.90
24800;DHT22;12897;50.812;4.430;2023-04-03T03:15:49;2.60;99.90
24800;DHT22;12897;50.812;4.430;2023-04-03T03:18:17;2.50;99.90
24800;DHT22;12897;50.812;4.430;2023-04-03T03:20:44;2.50;99.90
24800;DHT22;12897;50.812;4.430;2023-04-03T03:23:12;2.40;99.90
24800;DHT22;12897;50.812;4.430;2023-04-03T03:25:40;2.30;99.90
24800;DHT22;12897;50.812;4.430;2023-04-03T03:28:08;2.40;99.90
24800;DHT22;12897;50.812;4.430;2023-04-03T03:30:35;2.40;99.90
24800;DHT22;12897;50.812;4.430;2023-04-03T03:33:03;2.40;99.90
24800;DHT22;12897;50.812;4.430;2023-04-03T03:35:31;2.40;99.90
24800;DHT22;12897;50.812;4.430;2023-04-03T03:37:58;2.40;99.90
24800;DHT22;12897;50.812;4.430;2023-04-03T03:40:26;2.30;99.90
24800;DHT22;12897;50.812;4.430;2023-04-03T03:42:53;2.30;99.90
24800;DHT22;12897;50.812;4.430;2023-04-03T03:45:21;2.40;99.90
24800;DHT22;12897;50.812;4.430;2023-04-03T03:47:48;2.50;99.90
24800;DHT22;12897;50.812;4.430;2023-04-03T03:50:16;2.50;99.90
24800;DHT22;12897;50.812;4.430;2023-04-03T03:52:43;2.40;99.90
24800;DHT22;12897;50.812;4.430;2023-04-03T03:55:11;2.30;99.90
24800;DHT22;12897;50.812;4.430;2023-04-03T03:57:38;2.30;99.90
24800;DHT22;12897;50.812;4.430;2023-04-03T04:00:08;2.30;99.90
24800;DHT22;12897;50.812;4.430;2023-04-03T04:02:35;2.40;99.90
24800;DHT22;12897;50.812;4.430;2023-04-03T04:05:05;2.40;99.90
24800;DHT22;12897;50.812;4.430;2023-04-03T04:07:32;2.30;99.90
24800;DHT22;12897;50.812;4.430;2023-04-03T04:10:00;2.20;99.90
24800;DHT22;12897;50.812;4.430;2023-04-03T04:12:27;2.20;99.90
24800;DHT22;12897;50.812;4.430;2023-04-03T04:14:55;2.20;99.90
24800;DHT22;12897;50.812;4.430;2023-04-03T04:17:22;2.20;99.90
24800;DHT22;12897;50.812;4.430;2023-04-03T04:19:51;2.30;99.90
24800;DHT22;12897;50.812;4.430;2023-04-03T04:22:20;2.20;99.90
24800;DHT22;12897;50.812;4.430;2023-04-03T04:24:47;2.40;99.90
24800;DHT22;12897;50.812;4.430;2023-04-03T04:27:15;2.20;99.90
24800;DHT22;12897;50.812;4.430;2023-04-03T04:29:43;2.20;99.90
24800;DHT22;12897;50.812;4.430;2023-04-03T04:32:10;2.20;99.90
24800;DHT22;12897;50.812;4.430;2023-04-03T04:34:38;2.20;99.90
24800;DHT22;12897;50.812;4.430;2023-04-03T04:37:05;2.20;99.90
24800;DHT22;12897;50.812;4.430;2023-04-03T04:39:33;2.20;99.90
24800;DHT22;12897;50.812;4.430;2023-04-03T04:42:01;2.20;99.90
24800;DHT22;12897;50.812;4.430;2023-04-03T04:44:28;2.20;99.90
24800;DHT22;12897;50.812;4.430;2023-04-03T04:46:56;2.20;99.90
24800;DHT22;12897;50.812;4.430;2023-04-03T04:49:23;2.30;99.90
24800;DHT22;12897;50.812;4.430;2023-04-03T04:51:51;2.30;99.90
24800;DHT22;12897;50.812;4.430;2023-04-03T04:54:22;2.30;99.90
24800;DHT22;12897;50.812;4.430;2023-04-03T04:56:49;2.30;99.90
24800;DHT22;12897;50.812;4.430;2023-04-03T04:59:17;2.30;99.90
24800;DHT22;12897;50.812;4.430;2023-04-03T05:01:44;2.40;99.90
24800;DHT22;12897;50.812;4.430;2023-04-03T05:04:12;2.30;99.90
24800;DHT22;12897;50.812;4.430;2023-04-03T05:06:40;2.30;99.90
24800;DHT22;12897;50.812;4.430;2023-04-03T05:09:08;2.40;99.90
24800;DHT22;12897;50.812;4.430;2023-04-03T05:11:36;2.50;99.90
24800;DHT22;12897;50.812;4.430;2023-04-03T05:14:04;2.50;99.90
24800;DHT22;12897;50.812;4.430;2023-04-03T05:16:34;2.50;99.90
24800;DHT22;12897;50.812;4.430;2023-04-03T05:19:02;2.40;99.90
24800;DHT22;12897;50.812;4.430;2023-04-03T05:21:31;2.40;99.90
24800;DHT22;12897;50.812;4.430;2023-04-03T05:23:59;2.50;99.90
24800;DHT22;12897;50.812;4.430;2023-04-03T05:26:32;2.40;99.90
24800;DHT22;12897;50.812;4.430;2023-04-03T05:28:59;2.40;99.90
24800;DHT22;12897;50.812;4.430;2023-04-03T05:31:27;2.40;99.90
24800;DHT22;12897;50.812;4.430;2023-04-03T05:33:56;2.40;99.90
24800;DHT22;12897;50.812;4.430;2023-04-03T05:36:24;2.40;99.90
24800;DHT22;12897;50.812;4.430;2023-04-03T05:38:52;2.50;99.90
24800;DHT22;12897;50.812;4.430;2023-04-03T05:41:20;2.60;99.90
24800;DHT22;12897;50.812;4.430;2023-04-03T05:43:47;2.60;99.90
24800;DHT22;12897;50.812;4.430;2023-04-03T05:46:17;2.60;99.90
24800;DHT22;12897;50.812;4.430;2023-04-03T05:48:45;2.60;99.90
24800;DHT22;12897;50.812;4.430;2023-04-03T05:51:20;2.70;99.90
24800;DHT22;12897;50.812;4.430;2023-04-03T05:53:44;2.70;99.90
24800;DHT22;12897;50.812;4.430;2023-04-03T05:56:12;2.80;99.90
24800;DHT22;12897;50.812;4.430;2023-04-03T05:58:39;2.90;99.90
24800;DHT22;12897;50.812;4.430;2023-04-03T06:01:08;2.80;99.90
24800;DHT22;12897;50.812;4.430;2023-04-03T06:03:36;2.80;99.90
24800;DHT22;12897;50.812;4.430;2023-04-03T06:06:04;2.90;99.90
24800;DHT22;12897;50.812;4.430;2023-04-03T06:08:32;2.90;99.90
24800;DHT22;12897;50.812;4.430;2023-04-03T06:11:00;2.90;99.90
24800;DHT22;12897;50.812;4.430;2023-04-03T06:13:28;3.20;99.90
24800;DHT22;12897;50.812;4.430;2023-04-03T06:15:56;3.50;99.90
24800;DHT22;12897;50.812;4.430;2023-04-03T06:18:23;3.80;99.90
24800;DHT22;12897;50.812;4.430;2023-04-03T06:20:51;4.00;99.90
24800;DHT22;12897;50.812;4.430;2023-04-03T06:23:18;4.20;99.90
24800;DHT22;12897;50.812;4.430;2023-04-03T06:25:46;4.40;99.90
24800;DHT22;12897;50.812;4.430;2023-04-03T06:28:14;4.60;99.90
24800;DHT22;12897;50.812;4.430;2023-04-03T06:30:41;4.70;99.90
24800;DHT22;12897;50.812;4.430;2023-04-03T06:33:09;4.80;99.90
24800;DHT22;12897;50.812;4.430;2023-04-03T06:35:37;4.90;99.90
24800;DHT22;12897;50.812;4.430;2023-04-03T06:38:05;4.80;99.90
24800;DHT22;12897;50.812;4.430;2023-04-03T06:40:34;4.80;99.90
24800;DHT22;12897;50.812;4.430;2023-04-03T06:43:02;4.90;99.90
24800;DHT22;12897;50.812;4.430;2023-04-03T06:45:29;5.10;99.90
24800;DHT22;12897;50.812;4.430;2023-04-03T06:48:16;5.10;99.90
24800;DHT22;12897;50.812;4.430;2023-04-03T06:50:44;5.10;99.90
24800;DHT22;12897;50.812;4.430;2023-04-03T06:53:11;5.10;99.90
24800;DHT22;12897;50.812;4.430;2023-04-03T06:55:39;5.10;99.90
24800;DHT22;12897;50.812;4.430;2023-04-03T06:58:07;5.40;99.90
24800;DHT22;12897;50.812;4.430;2023-04-03T07:00:36;5.50;99.90
24800;DHT22;12897;50.812;4.430;2023-04-03T07:03:04;5.30;99.90
24800;DHT22;12897;50.812;4.430;2023-04-03T07:05:32;5.00;99.90
24800;DHT22;12897;50.812;4.430;2023-04-03T07:08:00;5.10;99.90
24800;DHT22;12897;50.812;4.430;2023-04-03T07:10:29;5.10;99.90
24800;DHT22;12897;50.812;4.430;2023-04-03T07:12:57;5.20;99.90
24800;DHT22;12897;50.812;4.430;2023-04-03T07:15:25;5.00;99.90
24800;DHT22;12897;50.812;4.430;2023-04-03T07:17:53;5.10;99.90
24800;DHT22;12897;50.812;4.430;2023-04-03T07:20:20;5.10;99.90
24800;DHT22;12897;50.812;4.430;2023-04-03T07:22:48;5.10;99.90
24800;DHT22;12897;50.812;4.430;2023-04-03T07:25:15;5.20;99.90
24800;DHT22;12897;50.812;4.430;2023-04-03T07:27:43;5.40;99.90
24800;DHT22;12897;50.812;4.430;2023-04-03T07:30:11;5.50;99.90
24800;DHT22;12897;50.812;4.430;2023-04-03T07:32:40;5.50;99.90
24800;DHT22;12897;50.812;4.430;2023-04-03T07:35:08;5.60;99.90
24800;DHT22;12897;50.812;4.430;2023-04-03T07:37:36;5.70;99.90
24800;DHT22;12897;50.812;4.430;2023-04-03T07:40:04;5.70;99.90
24800;DHT22;12897;50.812;4.430;2023-04-03T07:42:32;5.90;99.90
24800;DHT22;12897;50.812;4.430;2023-04-03T07:45:04;5.90;99.90
24800;DHT22;12897;50.812;4.430;2023-04-03T07:47:34;5.90;99.90
24800;DHT22;12897;50.812;4.430;2023-04-03T07:50:02;5.90;99.90
24800;DHT22;12897;50.812;4.430;2023-04-03T07:52:31;5.90;99.90
24800;DHT22;12897;50.812;4.430;2023-04-03T07:54:59;6.00;99.90
24800;DHT22;12897;50.812;4.430;2023-04-03T07:57:27;6.00;99.90
24800;DHT22;12897;50.812;4.430;2023-04-03T07:59:55;6.10;99.90
24800;DHT22;12897;50.812;4.430;2023-04-03T08:02:23;6.10;99.90
24800;DHT22;12897;50.812;4.430;2023-04-03T08:04:51;6.00;99.90
24800;DHT22;12897;50.812;4.430;2023-04-03T08:07:19;5.80;99.90
24800;DHT22;12897;50.812;4.430;2023-04-03T08:09:47;5.90;99.90
24800;DHT22;12897;50.812;4.430;2023-04-03T08:12:15;5.90;99.90
24800;DHT22;12897;50.812;4.430;2023-04-03T08:14:43;6.00;99.90
24800;DHT22;12897;50.812;4.430;2023-04-03T08:17:11;6.20;99.90
24800;DHT22;12897;50.812;4.430;2023-04-03T08:19:40;6.20;99.90
24800;DHT22;12897;50.812;4.430;2023-04-03T08:22:08;6.10;99.90
24800;DHT22;12897;50.812;4.430;2023-04-03T08:24:36;6.10;99.90
24800;DHT22;12897;50.812;4.430;2023-04-03T08:27:12;6.10;99.90
24800;DHT22;12897;50.812;4.430;2023-04-03T08:29:51;6.30;99.90
24800;DHT22;12897;50.812;4.430;2023-04-03T08:32:19;6.30;99.90
24800;DHT22;12897;50.812;4.430;2023-04-03T08:34:47;6.40;99.90
24800;DHT22;12897;50.812;4.430;2023-04-03T08:37:14;6.30;99.90
24800;DHT22;12897;50.812;4.430;2023-04-03T08:39:43;6.30;99.90
24800;DHT22;12897;50.812;4.430;2023-04-03T08:44:59;6.50;99.90
24800;DHT22;12897;50.812;4.430;2023-04-03T08:50:05;6.40;99.90
24800;DHT22;12897;50.812;4.430;2023-04-03T08:52:48;6.40;99.90
24800;DHT22;12897;50.812;4.430;2023-04-03T08:55:27;6.50;99.90
24800;DHT22;12897;50.812;4.430;2023-04-03T08:58:06;6.70;99.90
24800;DHT22;12897;50.812;4.430;2023-04-03T09:01:01;6.70;99.90
24800;DHT22;12897;50.812;4.430;2023-04-03T09:03:32;6.80;99.90
24800;DHT22;12897;50.812;4.430;2023-04-03T09:08:45;6.90;99.90
24800;DHT22;12897;50.812;4.430;2023-04-03T09:11:20;7.00;99.90
24800;DHT22;12897;50.812;4.430;2023-04-03T09:19:08;7.30;99.90
24800;DHT22;12897;50.812;4.430;2023-04-03T09:21:38;7.40;99.90
24800;DHT22;12897;50.812;4.430;2023-04-03T09:24:05;7.00;99.90
24800;DHT22;12897;50.812;4.430;2023-04-03T09:26:42;7.00;99.90
24800;DHT22;12897;50.812;4.430;2023-04-03T09:29:14;7.10;99.90
24800;DHT22;12897;50.812;4.430;2023-04-03T09:31:43;7.20;99.90
24800;DHT22;12897;50.812;4.430;2023-04-03T09:34:37;7.40;99.90
24800;DHT22;12897;50.812;4.430;2023-04-03T09:36:46;7.50;99.90
24800;DHT22;12897;50.812;4.430;2023-04-03T09:39:21;7.60;99.90
24800;DHT22;12897;50.812;4.430;2023-04-03T09:41:59;7.60;99.90
24800;DHT22;12897;50.812;4.430;2023-04-03T09:47:22;7.50;99.90
24800;DHT22;12897;50.812;4.430;2023-04-03T09:49:48;7.40;99.90
24800;DHT22;12897;50.812;4.430;2023-04-03T09:52:23;7.60;99.90
24800;DHT22;12897;50.812;4.430;2023-04-03T09:54:51;7.70;99.90
24800;DHT22;12897;50.812;4.430;2023-04-03T09:57:19;7.80;99.90
24800;DHT22;12897;50.812;4.430;2023-04-03T09:59:58;7.80;99.90
24800;DHT22;12897;50.812;4.430;2023-04-03T10:02:30;8.00;99.90
24800;DHT22;12897;50.812;4.430;2023-04-03T10:04:57;8.10;99.90
24800;DHT22;12897;50.812;4.430;2023-04-03T10:07:30;8.10;99.90
24800;DHT22;12897;50.812;4.430;2023-04-03T10:10:16;8.00;99.90
24800;DHT22;12897;50.812;4.430;2023-04-03T10:12:31;7.90;99.90
24800;DHT22;12897;50.812;4.430;2023-04-03T10:15:00;7.90;99.90
24800;DHT22;12897;50.812;4.430;2023-04-03T10:20:26;8.00;99.90
24800;DHT22;12897;50.812;4.430;2023-04-03T10:25:55;7.90;99.90
24800;DHT22;12897;50.812;4.430;2023-04-03T10:31:33;8.10;99.90
24800;DHT22;12897;50.812;4.430;2023-04-03T10:34:16;7.90;99.90
24800;DHT22;12897;50.812;4.430;2023-04-03T10:36:55;8.00;99.90
24800;DHT22;12897;50.812;4.430;2023-04-03T10:45:17;8.10;99.90
24800;DHT22;12897;50.812;4.430;2023-04-03T10:48:07;8.00;99.90
24800;DHT22;12897;50.812;4.430;2023-04-03T10:58:45;8.20;99.90
24800;DHT22;12897;50.812;4.430;2023-04-03T11:01:14;8.10;99.90
24800;DHT22;12897;50.812;4.430;2023-04-03T11:03:53;8.10;99.90
24800;DHT22;12897;50.812;4.430;2023-04-03T11:06:46;8.30;99.90
24800;DHT22;12897;50.812;4.430;2023-04-03T11:09:40;8.40;99.90
24800;DHT22;12897;50.812;4.430;2023-04-03T11:12:18;8.50;99.90
24800;DHT22;12897;50.812;4.430;2023-04-03T11:14:46;8.40;99.90
24800;DHT22;12897;50.812;4.430;2023-04-03T11:19:59;8.70;99.90
24800;DHT22;12897;50.812;4.430;2023-04-03T11:22:39;8.80;99.90
24800;DHT22;12897;50.812;4.430;2023-04-03T11:27:43;8.70;99.90
24800;DHT22;12897;50.812;4.430;2023-04-03T11:35:59;8.60;99.90
24800;DHT22;12897;50.812;4.430;2023-04-03T11:38:36;8.70;99.90
24800;DHT22;12897;50.812;4.430;2023-04-03T11:41:03;8.60;99.90
24800;DHT22;12897;50.812;4.430;2023-04-03T11:43:32;8.60;99.90
24800;DHT22;12897;50.812;4.430;2023-04-03T11:46:03;8.70;99.90
24800;DHT22;12897;50.812;4.430;2023-04-03T11:53:45;8.80;99.90
24800;DHT22;12897;50.812;4.430;2023-04-03T11:56:27;8.90;99.90
24800;DHT22;12897;50.812;4.430;2023-04-03T12:01:52;9.10;99.90
24800;DHT22;12897;50.812;4.430;2023-04-03T12:04:25;9.20;99.90
24800;DHT22;12897;50.812;4.430;2023-04-03T12:07:13;9.10;99.90
24800;DHT22;12897;50.812;4.430;2023-04-03T12:12:38;9.10;94.00
24800;DHT22;12897;50.812;4.430;2023-04-03T12:15:22;9.00;94.10
24800;DHT22;12897;50.812;4.430;2023-04-03T12:17:50;8.90;93.60
24800;DHT22;12897;50.812;4.430;2023-04-03T12:23:29;9.10;93.00
24800;DHT22;12897;50.812;4.430;2023-04-03T12:26:18;9.00;91.50
24800;DHT22;12897;50.812;4.430;2023-04-03T12:28:36;9.10;92.10
24800;DHT22;12897;50.812;4.430;2023-04-03T12:31:05;9.20;91.00
24800;DHT22;12897;50.812;4.430;2023-04-03T12:36:35;9.30;90.50
24800;DHT22;12897;50.812;4.430;2023-04-03T12:39:06;9.40;90.30
24800;DHT22;12897;50.812;4.430;2023-04-03T12:42:09;9.40;87.50
24800;DHT22;12897;50.812;4.430;2023-04-03T12:44:42;9.40;88.00
24800;DHT22;12897;50.812;4.430;2023-04-03T12:47:25;9.40;89.70
24800;DHT22;12897;50.812;4.430;2023-04-03T12:49:53;9.40;81.40
24800;DHT22;12897;50.812;4.430;2023-04-03T12:55:02;9.40;81.40
24800;DHT22;12897;50.812;4.430;2023-04-03T12:57:31;9.50;78.40
24800;DHT22;12897;50.812;4.430;2023-04-03T12:59:59;9.40;79.20
24800;DHT22;12897;50.812;4.430;2023-04-03T13:02:29;9.50;82.60
24800;DHT22;12897;50.812;4.430;2023-04-03T13:05:06;9.60;78.10
24800;DHT22;12897;50.812;4.430;2023-04-03T13:07:35;9.60;76.80
24800;DHT22;12897;50.812;4.430;2023-04-03T13:12:56;9.60;77.30
24800;DHT22;12897;50.812;4.430;2023-04-03T13:15:27;9.70;74.60
24800;DHT22;12897;50.812;4.430;2023-04-03T13:17:56;9.50;73.10
24800;DHT22;12897;50.812;4.430;2023-04-03T13:20:32;9.60;73.10
24800;DHT22;12897;50.812;4.430;2023-04-03T13:23:07;9.70;70.70
24800;DHT22;12897;50.812;4.430;2023-04-03T13:25:37;9.60;70.10
24800;DHT22;12897;50.812;4.430;2023-04-03T13:28:09;9.70;69.20
24800;DHT22;12897;50.812;4.430;2023-04-03T13:30:37;9.70;67.30
24800;DHT22;12897;50.812;4.430;2023-04-03T13:33:27;9.60;68.70
24800;DHT22;12897;50.812;4.430;2023-04-03T13:35:57;9.40;68.10
24800;DHT22;12897;50.812;4.430;2023-04-03T13:38:29;9.60;70.20
24800;DHT22;12897;50.812;4.430;2023-04-03T13:41:21;9.80;71.60
24800;DHT22;12897;50.812;4.430;2023-04-03T13:43:36;9.90;69.00
24800;DHT22;12897;50.812;4.430;2023-04-03T13:48:49;10.00;69.60
24800;DHT22;12897;50.812;4.430;2023-04-03T13:53:57;10.10;69.70
24800;DHT22;12897;50.812;4.430;2023-04-03T13:56:33;10.20;70.00
24800;DHT22;12897;50.812;4.430;2023-04-03T14:04:56;10.00;71.20
24800;DHT22;12897;50.812;4.430;2023-04-03T14:07:02;10.10;72.00
24800;DHT22;12897;50.812;4.430;2023-04-03T14:09:30;10.10;70.10
24800;DHT22;12897;50.812;4.430;2023-04-03T14:12:05;10.10;72.40
24800;DHT22;12897;50.812;4.430;2023-04-03T14:14:35;10.10;73.50
24800;DHT22;12897;50.812;4.430;2023-04-03T14:17:19;10.20;73.90
24800;DHT22;12897;50.812;4.430;2023-04-03T14:19:50;10.10;74.10
24800;DHT22;12897;50.812;4.430;2023-04-03T14:22:21;10.00;70.80
24800;DHT22;12897;50.812;4.430;2023-04-03T14:24:50;10.20;70.20
24800;DHT22;12897;50.812;4.430;2023-04-03T14:27:30;10.20;70.60
24800;DHT22;12897;50.812;4.430;2023-04-03T14:29:59;10.20;71.10
24800;DHT22;12897;50.812;4.430;2023-04-03T14:32:27;10.10;69.10
24800;DHT22;12897;50.812;4.430;2023-04-03T14:34:57;10.10;68.90
24800;DHT22;12897;50.812;4.430;2023-04-03T14:37:27;10.00;69.10
24800;DHT22;12897;50.812;4.430;2023-04-03T14:39:57;10.20;66.20
24800;DHT22;12897;50.812;4.430;2023-04-03T14:42:27;10.20;66.00
24800;DHT22;12897;50.812;4.430;2023-04-03T14:44:57;10.10;65.20
24800;DHT22;12897;50.812;4.430;2023-04-03T14:47:26;10.10;66.80
24800;DHT22;12897;50.812;4.430;2023-04-03T14:49:54;10.20;66.30
24800;DHT22;12897;50.812;4.430;2023-04-03T14:52:25;10.20;64.10
24800;DHT22;12897;50.812;4.430;2023-04-03T14:54:54;10.20;64.60
24800;DHT22;12897;50.812;4.430;2023-04-03T14:57:24;10.20;64.20
24800;DHT22;12897;50.812;4.430;2023-04-03T14:59:51;10.10;63.90
24800;DHT22;12897;50.812;4.430;2023-04-03T15:02:33;10.10;64.00
24800;DHT22;12897;50.812;4.430;2023-04-03T15:05:03;10.00;64.00
24800;DHT22;12897;50.812;4.430;2023-04-03T15:07:34;10.30;63.90
24800;DHT22;12897;50.812;4.430;2023-04-03T15:10:06;10.20;64.00
24800;DHT22;12897;50.812;4.430;2023-04-03T15:12:32;10.30;65.50
24800;DHT22;12897;50.812;4.430;2023-04-03T15:14:59;10.20;66.70
24800;DHT22;12897;50.812;4.430;2023-04-03T15:17:27;10.40;64.90
24800;DHT22;12897;50.812;4.430;2023-04-03T15:19:55;10.40;65.50
24800;DHT22;12897;50.812;4.430;2023-04-03T15:22:22;10.40;65.20
24800;DHT22;12897;50.812;4.430;2023-04-03T15:24:50;10.50;67.80
24800;DHT22;12897;50.812;4.430;2023-04-03T15:27:17;10.50;67.50
24800;DHT22;12897;50.812;4.430;2023-04-03T15:29:45;10.50;67.60
24800;DHT22;12897;50.812;4.430;2023-04-03T15:32:13;10.40;68.10
24800;DHT22;12897;50.812;4.430;2023-04-03T15:34:41;10.40;69.80
24800;DHT22;12897;50.812;4.430;2023-04-03T15:37:08;10.40;69.50
24800;DHT22;12897;50.812;4.430;2023-04-03T15:39:36;10.40;68.50
24800;DHT22;12897;50.812;4.430;2023-04-03T15:42:03;10.30;68.90
24800;DHT22;12897;50.812;4.430;2023-04-03T15:44:34;10.40;70.20
24800;DHT22;12897;50.812;4.430;2023-04-03T15:47:03;10.40;71.30
24800;DHT22;12897;50.812;4.430;2023-04-03T15:49:32;10.40;71.50
24800;DHT22;12897;50.812;4.430;2023-04-03T15:52:00;10.40;72.40
24800;DHT22;12897;50.812;4.430;2023-04-03T15:54:31;10.50;71.00
24800;DHT22;12897;50.812;4.430;2023-04-03T15:56:58;10.50;71.30
24800;DHT22;12897;50.812;4.430;2023-04-03T15:59:26;10.40;72.90
24800;DHT22;12897;50.812;4.430;2023-04-03T16:01:55;10.30;73.60
24800;DHT22;12897;50.812;4.430;2023-04-03T16:04:23;10.20;75.00
24800;DHT22;12897;50.812;4.430;2023-04-03T16:06:50;10.20;75.60
24800;DHT22;12897;50.812;4.430;2023-04-03T16:09:18;10.20;74.90
24800;DHT22;12897;50.812;4.430;2023-04-03T16:11:46;10.20;76.70
24800;DHT22;12897;50.812;4.430;2023-04-03T16:14:13;10.30;74.60
24800;DHT22;12897;50.812;4.430;2023-04-03T16:16:41;10.20;74.60
24800;DHT22;12897;50.812;4.430;2023-04-03T16:19:09;10.20;75.40
24800;DHT22;12897;50.812;4.430;2023-04-03T16:21:37;10.20;77.60
24800;DHT22;12897;50.812;4.430;2023-04-03T16:24:05;10.20;78.40
24800;DHT22;12897;50.812;4.430;2023-04-03T16:26:33;10.10;79.40
24800;DHT22;12897;50.812;4.430;2023-04-03T16:29:02;10.10;80.20
24800;DHT22;12897;50.812;4.430;2023-04-03T16:31:31;10.10;80.30
24800;DHT22;12897;50.812;4.430;2023-04-03T16:34:00;10.10;79.90
24800;DHT22;12897;50.812;4.430;2023-04-03T16:36:28;10.10;81.40
24800;DHT22;12897;50.812;4.430;2023-04-03T16:38:55;10.20;81.60
24800;DHT22;12897;50.812;4.430;2023-04-03T16:41:23;10.00;81.80
24800;DHT22;12897;50.812;4.430;2023-04-03T16:43:50;10.10;82.80
24800;DHT22;12897;50.812;4.430;2023-04-03T16:46:18;10.10;83.10
24800;DHT22;12897;50.812;4.430;2023-04-03T16:48:46;10.10;83.30
24800;DHT22;12897;50.812;4.430;2023-04-03T16:51:14;10.10;83.00
24800;DHT22;12897;50.812;4.430;2023-04-03T16:53:41;10.00;83.00
24800;DHT22;12897;50.812;4.430;2023-04-03T16:56:09;9.90;83.80
24800;DHT22;12897;50.812;4.430;2023-04-03T16:58:36;9.90;85.50
24800;DHT22;12897;50.812;4.430;2023-04-03T17:01:18;9.90;85.20
24800;DHT22;12897;50.812;4.430;2023-04-03T17:03:46;10.00;84.60
24800;DHT22;12897;50.812;4.430;2023-04-03T17:06:16;9.90;85.40
24800;DHT22;12897;50.812;4.430;2023-04-03T17:08:46;9.80;85.90
24800;DHT22;12897;50.812;4.430;2023-04-03T17:11:14;9.90;86.10
24800;DHT22;12897;50.812;4.430;2023-04-03T17:13:41;9.80;86.50
24800;DHT22;12897;50.812;4.430;2023-04-03T17:16:12;9.90;86.10
24800;DHT22;12897;50.812;4.430;2023-04-03T17:18:40;10.00;86.70
24800;DHT22;12897;50.812;4.430;2023-04-03T17:21:09;10.00;87.20
24800;DHT22;12897;50.812;4.430;2023-04-03T17:23:38;9.80;87.40
24800;DHT22;12897;50.812;4.430;2023-04-03T17:26:06;9.60;89.30